Time;durP1;ratioP1;P1;durP2;ratioP2;P2;SDS_P1;SDS_P2;PMS_P1;PMS_P2;Temp;Humidity;BMP_temperature;BMP_pressure;BME280_temperature;BME280_humidity;BME280_pressure;Samples;Min_cycle;Max_cycle;Signal;HPM_P1;HPM_P2
2022/07/17 00:01:55;;;;;;;1.27;1.27;;;24.20;60.50;;;;;;5108203;27;43921;-70
2022/07/17 00:04:24;;;;;;;1.00;1.00;;;24.30;60.10;;;;;;5093103;27;43981;-69
2022/07/17 00:06:51;;;;;;;0.93;0.93;;;24.40;59.60;;;;;;5088259;27;43762;-69
2022/07/17 00:09:20;;;;;;;1.00;1.00;;;24.50;59.60;;;;;;5088103;27;43936;-70
2022/07/17 00:11:48;;;;;;;0.77;0.77;;;24.60;59.40;;;;;;5088348;27;43924;-69
2022/07/17 00:14:15;;;;;;;1.00;1.00;;;24.70;59.20;;;;;;5090634;27;44031;-70
2022/07/17 00:16:43;;;;;;;1.10;1.10;;;24.80;58.90;;;;;;5107722;27;44067;-70
2022/07/17 00:19:13;;;;;;;0.83;0.83;;;24.90;58.70;;;;;;5108063;27;43952;-69
2022/07/17 00:21:42;;;;;;;0.90;0.90;;;25.00;58.30;;;;;;5107335;27;44082;-71
2022/07/17 00:24:10;;;;;;;1.10;1.10;;;24.90;58.40;;;;;;5108331;27;43920;-69
2022/07/17 00:26:38;;;;;;;1.07;1.07;;;24.80;59.30;;;;;;5088950;27;46217;-69
2022/07/17 00:29:06;;;;;;;1.10;1.10;;;24.70;58.80;;;;;;5107628;27;43395;-70
2022/07/17 00:31:34;;;;;;;0.90;0.90;;;24.50;58.80;;;;;;5107808;27;43451;-69
2022/07/17 00:34:03;;;;;;;0.83;0.83;;;24.40;59.10;;;;;;5108063;27;43950;-69
2022/07/17 00:36:32;;;;;;;1.00;1.00;;;24.20;59.00;;;;;;5106488;27;43866;-69
2022/07/17 00:39:01;;;;;;;0.80;0.80;;;24.10;59.30;;;;;;5107474;27;43967;-70
2022/07/17 00:41:29;;;;;;;0.90;0.90;;;24.10;59.50;;;;;;5088368;27;43458;-70
2022/07/17 00:44:04;;;;;;;0.80;0.80;;;24.00;60.30;;;;;;5105173;27;44213;-69
2022/07/17 00:46:32;;;;;;;0.93;0.93;;;24.00;59.80;;;;;;5087842;27;43984;-70
2022/07/17 00:49:00;;;;;;;0.63;0.63;;;23.90;59.90;;;;;;5087757;27;43979;-69
2022/07/17 00:51:28;;;;;;;0.87;0.87;;;23.90;60.10;;;;;;5086667;27;43478;-70
2022/07/17 00:53:58;;;;;;;0.90;0.90;;;23.90;60.10;;;;;;5088245;27;43377;-69
2022/07/17 00:56:31;;;;;;;0.90;0.90;;;23.90;60.10;;;;;;5086770;27;44068;-69
2022/07/17 00:58:59;;;;;;;0.80;0.80;;;23.90;60.20;;;;;;5087419;27;44011;-70
2022/07/17 01:01:27;;;;;;;0.80;0.80;;;23.80;61.10;;;;;;5087724;27;44065;-69
2022/07/17 01:03:55;;;;;;;1.00;1.00;;;23.80;62.00;;;;;;5087814;27;43975;-69
2022/07/17 01:06:23;;;;;;;0.70;0.70;;;23.90;61.90;;;;;;5087280;27;43940;-69
2022/07/17 01:08:51;;;;;;;0.70;0.70;;;24.00;61.80;;;;;;5087452;27;43981;-70
2022/07/17 01:11:21;;;;;;;1.00;1.00;;;24.10;61.30;;;;;;5087326;27;44049;-69
2022/07/17 01:13:49;;;;;;;0.90;0.90;;;24.20;60.60;;;;;;5087735;27;43462;-70
2022/07/17 01:16:17;;;;;;;0.87;0.87;;;24.30;60.80;;;;;;5087314;27;44818;-69
2022/07/17 01:18:47;;;;;;;0.80;0.80;;;24.40;60.40;;;;;;5094187;27;43962;-69
2022/07/17 01:21:16;;;;;;;0.80;0.80;;;24.50;60.20;;;;;;5106885;27;43895;-68
2022/07/17 01:23:44;;;;;;;1.00;1.00;;;24.60;59.90;;;;;;5107027;27;43946;-69
2022/07/17 01:26:12;;;;;;;0.90;0.90;;;24.70;59.60;;;;;;5106944;27;43967;-69
2022/07/17 01:28:40;;;;;;;0.80;0.80;;;24.80;59.40;;;;;;5106940;27;43950;-69
2022/07/17 01:31:08;;;;;;;0.90;0.90;;;24.90;59.20;;;;;;5107034;27;44249;-69
2022/07/17 01:33:37;;;;;;;0.80;0.80;;;25.00;58.80;;;;;;5107306;27;43470;-69
2022/07/17 01:36:05;;;;;;;0.93;0.93;;;25.00;58.80;;;;;;5106535;27;43883;-69
2022/07/17 01:38:34;;;;;;;0.90;0.90;;;24.80;59.00;;;;;;5106446;27;43974;-69
2022/07/17 01:41:02;;;;;;;0.90;0.90;;;24.70;59.30;;;;;;5106118;27;43933;-69
2022/07/17 01:43:30;;;;;;;0.80;0.80;;;24.50;59.20;;;;;;5106727;27;43785;-69
2022/07/17 01:45:59;;;;;;;0.80;0.80;;;24.40;59.40;;;;;;5106224;27;43963;-69
2022/07/17 01:48:29;;;;;;;1.00;1.00;;;24.30;59.60;;;;;;5106380;27;43426;-69
2022/07/17 01:50:57;;;;;;;0.80;0.80;;;24.20;59.90;;;;;;5106679;27;43983;-69
2022/07/17 01:53:25;;;;;;;0.90;0.90;;;24.10;60.00;;;;;;5107165;27;43927;-69
2022/07/17 01:55:54;;;;;;;0.83;0.83;;;24.00;60.30;;;;;;5106342;27;44028;-70
2022/07/17 01:58:22;;;;;;;0.90;0.90;;;24.00;60.30;;;;;;5106259;27;44070;-69
2022/07/17 02:00:50;;;;;;;1.00;1.00;;;24.00;60.60;;;;;;5106348;27;43336;-69
2022/07/17 02:03:19;;;;;;;0.70;0.70;;;23.90;60.50;;;;;;5106743;27;43580;-69
2022/07/17 02:05:47;;;;;;;0.70;0.70;;;23.90;60.50;;;;;;5106242;27;44961;-69
2022/07/17 02:08:15;;;;;;;0.90;0.90;;;23.90;60.70;;;;;;5048261;28;46388;-69
2022/07/17 02:10:45;;;;;;;0.80;0.80;;;23.90;60.80;;;;;;5083603;27;44007;-69
2022/07/17 02:13:14;;;;;;;0.80;0.80;;;23.80;61.40;;;;;;5083970;27;43834;-70
2022/07/17 02:15:42;;;;;;;0.80;0.80;;;23.80;62.40;;;;;;5083952;27;43687;-69
2022/07/17 02:18:10;;;;;;;0.90;0.90;;;23.90;62.50;;;;;;5083857;27;43426;-70
2022/07/17 02:20:41;;;;;;;1.00;1.00;;;23.90;62.30;;;;;;5084114;27;44032;-70
2022/07/17 02:23:10;;;;;;;0.77;0.77;;;24.10;62.70;;;;;;5072098;27;44033;-70
2022/07/17 02:25:38;;;;;;;0.90;0.90;;;24.20;61.60;;;;;;5089492;27;43941;-69
2022/07/17 02:28:06;;;;;;;1.03;1.03;;;24.30;61.10;;;;;;5089455;27;44852;-69
2022/07/17 02:30:36;;;;;;;0.90;0.90;;;24.40;61.70;;;;;;5089726;27;43979;-70
2022/07/17 02:33:04;;;;;;;0.97;0.97;;;24.50;60.80;;;;;;5090298;27;43452;-69
2022/07/17 02:35:32;;;;;;;0.90;0.90;;;24.60;60.50;;;;;;5089404;27;45108;-69
2022/07/17 02:38:00;;;;;;;0.80;0.80;;;24.70;60.10;;;;;;5089542;27;43803;-70
2022/07/17 02:40:28;;;;;;;0.80;0.80;;;24.80;59.80;;;;;;5089274;27;43391;-69
2022/07/17 02:42:56;;;;;;;1.00;1.00;;;24.90;59.50;;;;;;5090154;27;43975;-69
2022/07/17 02:45:25;;;;;;;0.93;0.93;;;25.00;59.00;;;;;;5089382;27;44087;-69
2022/07/17 02:47:54;;;;;;;0.80;0.80;;;25.00;59.10;;;;;;5088476;27;43848;-69
2022/07/17 02:50:22;;;;;;;0.97;0.97;;;24.90;59.20;;;;;;5089504;27;43766;-69
2022/07/17 02:52:50;;;;;;;0.90;0.90;;;24.80;59.50;;;;;;5071353;27;44009;-69
2022/07/17 02:55:19;;;;;;;0.80;0.80;;;24.60;59.60;;;;;;5089311;27;43987;-70
2022/07/17 02:57:47;;;;;;;0.93;0.93;;;24.40;59.70;;;;;;5089560;27;44128;-69
2022/07/17 03:00:17;;;;;;;1.10;1.10;;;24.30;60.00;;;;;;5089319;27;43958;-69
2022/07/17 03:02:45;;;;;;;0.90;0.90;;;24.20;60.20;;;;;;5097872;27;43796;-69
2022/07/17 03:05:15;;;;;;;0.90;0.90;;;24.10;60.40;;;;;;5108922;27;43960;-69
2022/07/17 03:07:44;;;;;;;0.83;0.83;;;24.00;61.40;;;;;;5108665;27;43761;-70
2022/07/17 03:10:12;;;;;;;0.70;0.70;;;24.00;60.80;;;;;;5109023;27;43846;-70
2022/07/17 03:12:41;;;;;;;0.90;0.90;;;23.90;60.90;;;;;;5109363;27;43840;-69
2022/07/17 03:15:09;;;;;;;0.77;0.77;;;23.90;61.00;;;;;;5109115;27;44195;-68
2022/07/17 03:17:39;;;;;;;0.80;0.80;;;23.90;61.20;;;;;;5109070;27;43411;-69
2022/07/17 03:20:09;;;;;;;0.80;0.80;;;23.80;61.20;;;;;;5107982;27;43995;-70
2022/07/17 03:22:38;;;;;;;0.70;0.70;;;23.80;61.40;;;;;;5109140;27;44066;-70
2022/07/17 03:25:07;;;;;;;0.80;0.80;;;23.80;61.40;;;;;;5105725;27;43731;-69
2022/07/17 03:27:36;;;;;;;1.03;1.03;;;23.70;61.30;;;;;;5088711;27;44036;-69
2022/07/17 03:30:04;;;;;;;0.80;0.80;;;23.70;62.80;;;;;;5088999;27;43998;-69
2022/07/17 03:32:32;;;;;;;1.10;1.10;;;23.80;63.10;;;;;;5088175;27;43819;-69
2022/07/17 03:35:01;;;;;;;0.90;0.90;;;23.90;63.00;;;;;;5088396;27;44707;-69
2022/07/17 03:37:29;;;;;;;1.00;1.00;;;23.90;62.70;;;;;;5087891;27;43976;-69
2022/07/17 03:39:58;;;;;;;1.03;1.03;;;24.10;62.30;;;;;;5069962;27;43911;-70
2022/07/17 03:42:26;;;;;;;0.80;0.80;;;24.20;62.00;;;;;;5089198;27;44047;-70
2022/07/17 03:44:54;;;;;;;1.00;1.00;;;24.30;61.60;;;;;;5097358;27;44800;-69
2022/07/17 03:47:22;;;;;;;0.90;0.90;;;24.40;61.10;;;;;;5108205;27;43911;-69
2022/07/17 03:49:50;;;;;;;0.90;0.90;;;24.50;61.10;;;;;;5089827;27;43967;-69
2022/07/17 03:52:18;;;;;;;0.80;0.80;;;24.60;60.50;;;;;;5080118;27;43994;-69
2022/07/17 03:54:46;;;;;;;0.90;0.90;;;24.80;60.10;;;;;;5088378;27;43920;-69
2022/07/17 03:57:16;;;;;;;0.90;0.90;;;24.90;59.80;;;;;;5088390;27;43374;-70
2022/07/17 03:59:44;;;;;;;0.70;0.70;;;25.00;59.50;;;;;;5098968;27;43939;-69
2022/07/17 04:02:12;;;;;;;0.90;0.90;;;25.00;59.40;;;;;;5109260;27;43926;-69
2022/07/17 04:04:40;;;;;;;0.80;0.80;;;24.90;59.80;;;;;;5108440;27;44756;-69
2022/07/17 04:07:26;;;;;;;0.80;0.80;;;24.70;59.90;;;;;;5091256;27;43395;-69
2022/07/17 04:09:56;;;;;;;0.80;0.80;;;24.60;60.20;;;;;;5107947;27;43991;-70
2022/07/17 04:12:25;;;;;;;0.80;0.80;;;24.40;60.30;;;;;;5108766;27;43951;-69
2022/07/17 04:14:53;;;;;;;0.80;0.80;;;24.30;60.60;;;;;;5095054;27;44018;-70
2022/07/17 04:17:21;;;;;;;0.87;0.87;;;24.20;60.80;;;;;;5094637;27;44099;-69
2022/07/17 04:19:49;;;;;;;0.80;0.80;;;24.10;61.00;;;;;;5081709;27;43933;-69
2022/07/17 04:22:17;;;;;;;0.80;0.80;;;24.00;61.90;;;;;;5081707;27;44161;-69
2022/07/17 04:24:45;;;;;;;0.77;0.77;;;24.00;61.40;;;;;;5081220;27;43957;-70
2022/07/17 04:27:13;;;;;;;0.70;0.70;;;23.90;61.40;;;;;;5069831;27;45036;-70
2022/07/17 04:29:42;;;;;;;0.80;0.80;;;23.90;61.60;;;;;;5081410;27;43975;-70
2022/07/17 04:32:10;;;;;;;0.87;0.87;;;23.90;61.70;;;;;;5095225;27;43875;-69
2022/07/17 04:34:38;;;;;;;0.80;0.80;;;23.80;61.70;;;;;;5081401;27;45297;-70
2022/07/17 04:37:06;;;;;;;0.80;0.80;;;23.80;61.90;;;;;;5081225;27;43980;-69
2022/07/17 04:39:34;;;;;;;0.87;0.87;;;23.80;63.10;;;;;;5081204;27;43888;-69
2022/07/17 04:42:02;;;;;;;0.80;0.80;;;23.80;63.40;;;;;;5081673;27;43422;-70
2022/07/17 04:44:30;;;;;;;0.80;0.80;;;23.90;63.30;;;;;;5081012;27;43939;-69
2022/07/17 04:47:00;;;;;;;0.70;0.70;;;24.00;63.20;;;;;;5081128;27;44009;-69
2022/07/17 04:49:28;;;;;;;0.77;0.77;;;24.10;63.50;;;;;;5088475;27;43824;-69
2022/07/17 04:51:56;;;;;;;0.80;0.80;;;24.20;62.00;;;;;;5107838;27;43985;-70
2022/07/17 04:54:25;;;;;;;0.80;0.80;;;24.30;62.20;;;;;;5107474;27;44006;-69
2022/07/17 04:56:53;;;;;;;0.80;0.80;;;24.40;61.60;;;;;;5107172;27;43964;-69
2022/07/17 04:59:21;;;;;;;0.90;0.90;;;24.50;62.00;;;;;;5107389;27;43953;-69
2022/07/17 05:01:49;;;;;;;0.80;0.80;;;24.60;60.70;;;;;;5107847;27;43906;-69
2022/07/17 05:04:19;;;;;;;0.73;0.73;;;24.70;60.40;;;;;;5087592;27;43967;-69
2022/07/17 05:06:54;;;;;;;0.90;0.90;;;24.80;60.00;;;;;;5102285;27;44124;-69
2022/07/17 05:09:22;;;;;;;0.87;0.77;;;25.00;59.80;;;;;;5107329;27;43359;-70
2022/07/17 05:11:50;;;;;;;0.90;0.90;;;25.00;59.50;;;;;;5093043;27;43491;-69
2022/07/17 05:14:19;;;;;;;0.80;0.80;;;24.90;59.80;;;;;;5095772;27;43895;-70
2022/07/17 05:16:47;;;;;;;0.87;0.87;;;24.80;60.20;;;;;;5106997;27;44018;-69
2022/07/17 05:19:15;;;;;;;0.90;0.90;;;24.60;60.40;;;;;;5092374;27;43322;-70
2022/07/17 05:21:45;;;;;;;0.70;0.70;;;24.50;60.60;;;;;;5087827;27;44243;-69
2022/07/17 05:24:13;;;;;;;0.80;0.80;;;24.30;60.70;;;;;;5087576;27;45122;-70
2022/07/17 05:26:41;;;;;;;0.70;0.70;;;24.20;60.90;;;;;;5068763;27;43843;-69
2022/07/17 05:29:09;;;;;;;0.70;0.70;;;24.10;61.20;;;;;;5094421;27;43829;-69
2022/07/17 05:31:36;;;;;;;0.80;0.80;;;24.00;61.50;;;;;;5094674;27;43952;-70
2022/07/17 05:34:05;;;;;;;0.80;0.80;;;24.00;61.70;;;;;;5070622;27;45699;-69
2022/07/17 05:36:33;;;;;;;0.80;0.80;;;23.90;61.80;;;;;;5106467;27;43973;-69
2022/07/17 05:39:02;;;;;;;0.80;0.80;;;23.80;61.80;;;;;;5105227;27;43331;-69
2022/07/17 05:41:30;;;;;;;0.80;0.80;;;23.80;62.00;;;;;;5068816;27;44044;-69
2022/07/17 05:43:58;;;;;;;0.80;0.80;;;23.80;62.10;;;;;;5089145;27;43771;-69
2022/07/17 05:46:26;;;;;;;0.70;0.70;;;23.80;62.20;;;;;;5090648;27;43766;-69
2022/07/17 05:48:54;;;;;;;0.70;0.70;;;23.80;62.30;;;;;;5099800;27;43939;-69
2022/07/17 05:51:22;;;;;;;0.80;0.80;;;23.70;62.20;;;;;;5101982;27;43875;-69
2022/07/17 05:53:52;;;;;;;0.80;0.80;;;23.70;62.20;;;;;;5090715;27;43910;-69
2022/07/17 05:56:21;;;;;;;0.80;0.80;;;23.70;62.30;;;;;;5090487;27;43953;-70
2022/07/17 05:58:49;;;;;;;0.80;0.80;;;23.70;62.40;;;;;;5090740;27;43868;-69
2022/07/17 06:01:17;;;;;;;0.80;0.80;;;23.70;63.60;;;;;;5091124;27;43890;-69
2022/07/17 06:03:45;;;;;;;0.80;0.80;;;23.80;63.40;;;;;;5090294;27;44076;-69
2022/07/17 06:06:13;;;;;;;0.70;0.70;;;23.90;63.70;;;;;;5090532;27;43956;-69
2022/07/17 06:08:41;;;;;;;0.83;0.83;;;24.00;63.20;;;;;;5090832;27;43924;-69
2022/07/17 06:11:09;;;;;;;0.80;0.80;;;24.10;62.70;;;;;;5106733;27;44000;-69
2022/07/17 06:13:39;;;;;;;0.80;0.80;;;24.30;62.40;;;;;;5100495;27;43611;-70
2022/07/17 06:16:08;;;;;;;0.70;0.70;;;24.30;62.40;;;;;;5090216;27;43935;-69
2022/07/17 06:18:36;;;;;;;0.80;0.80;;;24.40;61.60;;;;;;5090188;27;43998;-69
2022/07/17 06:21:04;;;;;;;0.80;0.80;;;24.50;61.20;;;;;;5090651;27;43384;-69
2022/07/17 06:23:33;;;;;;;0.70;0.70;;;24.70;60.80;;;;;;5090015;27;44015;-69
2022/07/17 06:26:01;;;;;;;0.80;0.80;;;24.80;60.30;;;;;;5089927;27;44028;-69
2022/07/17 06:28:29;;;;;;;0.80;0.80;;;24.90;60.20;;;;;;5090280;27;43836;-70
2022/07/17 06:30:58;;;;;;;0.90;0.90;;;24.80;60.20;;;;;;5090421;27;43893;-70
2022/07/17 06:33:27;;;;;;;0.80;0.80;;;24.70;60.70;;;;;;5089814;27;44648;-69
2022/07/17 06:35:55;;;;;;;0.90;0.90;;;24.50;60.90;;;;;;5089363;27;43913;-70
2022/07/17 06:38:23;;;;;;;0.77;0.77;;;24.40;61.00;;;;;;5089922;27;43960;-69
2022/07/17 06:40:51;;;;;;;0.80;0.80;;;24.30;61.30;;;;;;5096869;27;43953;-69
2022/07/17 06:43:19;;;;;;;0.90;0.90;;;24.10;61.40;;;;;;5099941;27;44022;-70
2022/07/17 06:45:47;;;;;;;0.70;0.70;;;24.10;61.70;;;;;;5109022;27;43951;-70
2022/07/17 06:48:16;;;;;;;0.70;0.70;;;24.00;61.90;;;;;;5109684;27;43441;-70
2022/07/17 06:50:44;;;;;;;0.80;0.80;;;23.90;62.00;;;;;;5110172;27;43848;-68
2022/07/17 06:53:12;;;;;;;0.73;0.73;;;23.90;62.10;;;;;;5109527;27;43869;-69
2022/07/17 06:55:40;;;;;;;0.90;0.90;;;23.90;62.30;;;;;;5108077;27;43404;-70
2022/07/17 06:58:08;;;;;;;0.80;0.80;;;23.80;62.40;;;;;;5092575;27;43996;-70
2022/07/17 07:00:36;;;;;;;1.00;1.00;;;23.80;62.50;;;;;;5089965;27;43940;-69
2022/07/17 07:03:04;;;;;;;0.80;0.80;;;23.70;63.80;;;;;;5071058;28;47735;-70
2022/07/17 07:05:33;;;;;;;0.90;0.90;;;23.70;63.90;;;;;;5092927;27;43999;-70
2022/07/17 07:08:01;;;;;;;0.70;0.70;;;23.80;64.10;;;;;;5109005;27;43897;-70
2022/07/17 07:10:29;;;;;;;0.80;0.80;;;23.90;63.70;;;;;;5109469;27;43987;-70
2022/07/17 07:12:57;;;;;;;0.70;0.70;;;24.00;63.20;;;;;;5108821;27;44329;-71
2022/07/17 07:15:25;;;;;;;0.80;0.80;;;24.10;62.70;;;;;;5108858;27;43892;-69
2022/07/17 07:17:53;;;;;;;0.90;0.90;;;24.20;62.10;;;;;;5091576;27;43849;-69
2022/07/17 07:20:21;;;;;;;0.80;0.80;;;24.30;61.90;;;;;;5071127;28;43639;-70
2022/07/17 07:22:51;;;;;;;0.77;0.77;;;24.40;61.20;;;;;;5099880;27;43912;-68
2022/07/17 07:25:24;;;;;;;0.90;0.90;;;24.50;60.80;;;;;;5090980;27;44033;-69
2022/07/17 07:27:52;;;;;;;0.80;0.80;;;24.70;60.20;;;;;;5089282;27;43904;-70
2022/07/17 07:30:20;;;;;;;0.80;0.80;;;24.80;60.00;;;;;;5089363;27;43952;-70
2022/07/17 07:32:48;;;;;;;0.80;0.80;;;24.90;59.80;;;;;;5089424;27;44781;-70
2022/07/17 07:35:16;;;;;;;0.90;0.90;;;24.80;59.40;;;;;;5089199;27;43998;-69
2022/07/17 07:37:44;;;;;;;0.80;0.80;;;24.80;60.00;;;;;;5100619;27;43367;-70
2022/07/17 07:40:13;;;;;;;0.90;0.90;;;24.60;60.40;;;;;;5097451;27;43442;-69
2022/07/17 07:42:43;;;;;;;0.80;0.80;;;24.40;60.60;;;;;;5107336;27;43954;-69
2022/07/17 07:45:11;;;;;;;0.70;0.70;;;24.30;60.90;;;;;;5090152;27;45037;-69
2022/07/17 07:47:43;;;;;;;0.90;0.90;;;24.20;61.10;;;;;;5108794;27;43447;-69
2022/07/17 07:50:12;;;;;;;0.73;0.73;;;24.10;61.20;;;;;;5109145;27;43999;-69
2022/07/17 07:52:40;;;;;;;0.87;0.87;;;24.00;61.20;;;;;;5107635;27;44131;-69
2022/07/17 07:55:11;;;;;;;0.80;0.80;;;23.90;61.80;;;;;;5095344;27;44081;-70
2022/07/17 07:57:48;;;;;;;0.87;0.87;;;23.80;61.90;;;;;;5083266;27;43916;-69
2022/07/17 08:00:17;;;;;;;0.70;0.70;;;23.80;61.90;;;;;;5089534;27;43956;-69
2022/07/17 08:02:45;;;;;;;0.90;0.90;;;23.70;61.20;;;;;;5103035;27;44901;-69
2022/07/17 08:05:13;;;;;;;0.80;0.80;;;23.70;61.60;;;;;;5108827;27;44074;-69
2022/07/17 08:07:41;;;;;;;0.80;0.80;;;23.70;62.80;;;;;;5108000;27;43947;-69
2022/07/17 08:10:09;;;;;;;0.80;0.80;;;23.70;62.30;;;;;;5109508;27;43407;-69
2022/07/17 08:12:37;;;;;;;0.80;0.80;;;23.70;62.30;;;;;;5089223;27;46467;-70
2022/07/17 08:15:16;;;;;;;0.80;0.80;;;23.70;62.30;;;;;;5108085;27;43952;-70
2022/07/17 08:17:44;;;;;;;1.00;1.00;;;23.60;63.10;;;;;;5108365;27;44029;-70
2022/07/17 08:20:12;;;;;;;1.60;1.10;;;23.60;63.40;;;;;;5108178;27;43968;-69
2022/07/17 08:22:42;;;;;;;1.00;1.00;;;23.70;63.60;;;;;;5107802;27;44798;-68
2022/07/17 08:25:30;;;;;;;1.13;1.10;;;23.80;63.40;;;;;;5107913;27;44499;-70
2022/07/17 08:27:58;;;;;;;0.80;0.80;;;23.90;63.00;;;;;;5089069;27;43917;-70
2022/07/17 08:30:28;;;;;;;1.00;1.00;;;24.00;62.60;;;;;;5107610;27;43962;-69
2022/07/17 08:32:56;;;;;;;0.90;0.90;;;24.10;62.30;;;;;;5088289;27;43924;-69
2022/07/17 08:35:24;;;;;;;0.97;0.97;;;24.30;61.60;;;;;;5087964;27;43476;-69
2022/07/17 08:37:52;;;;;;;1.00;1.00;;;24.40;61.20;;;;;;5088060;27;43854;-70
2022/07/17 08:40:22;;;;;;;0.93;0.93;;;24.50;61.00;;;;;;5087827;27;44021;-69
2022/07/17 08:42:50;;;;;;;0.90;0.90;;;24.60;61.20;;;;;;5094172;27;43920;-70
2022/07/17 08:45:18;;;;;;;1.10;1.10;;;24.70;60.00;;;;;;5087802;27;43954;-70
2022/07/17 08:47:49;;;;;;;1.10;1.10;;;24.80;59.70;;;;;;5107652;27;43933;-69
2022/07/17 08:50:17;;;;;;;0.90;0.90;;;24.70;59.90;;;;;;5080948;27;43895;-70
2022/07/17 08:52:45;;;;;;;0.97;0.97;;;24.60;60.50;;;;;;5080856;27;43931;-69
2022/07/17 08:55:13;;;;;;;1.00;1.00;;;24.50;60.80;;;;;;5080773;27;44087;-69
2022/07/17 08:57:45;;;;;;;0.90;0.90;;;24.30;60.80;;;;;;5081558;27;44047;-70
2022/07/17 09:00:15;;;;;;;0.90;0.90;;;24.20;61.00;;;;;;5083013;27;43412;-69
2022/07/17 09:02:58;;;;;;;1.00;1.00;;;24.00;61.20;;;;;;5088612;27;45494;-69
2022/07/17 09:05:27;;;;;;;0.87;0.87;;;24.00;61.60;;;;;;5107299;27;44032;-69
2022/07/17 09:07:55;;;;;;;0.90;0.90;;;23.90;61.90;;;;;;5088673;27;43913;-69
2022/07/17 09:10:34;;;;;;;0.90;0.90;;;23.80;61.90;;;;;;5091328;27;44360;-69
2022/07/17 09:13:02;;;;;;;0.80;0.80;;;23.80;62.20;;;;;;5086965;27;44362;-70
2022/07/17 09:15:33;;;;;;;0.90;0.90;;;23.70;62.30;;;;;;5087365;27;43967;-70
2022/07/17 09:18:03;;;;;;;1.00;1.00;;;23.70;62.40;;;;;;5068160;28;43440;-70
2022/07/17 09:20:31;;;;;;;1.00;1.00;;;23.70;62.10;;;;;;5106510;27;43924;-69
2022/07/17 09:23:00;;;;;;;1.10;1.10;;;23.70;62.10;;;;;;5088006;27;45708;-69
2022/07/17 09:25:36;;;;;;;1.20;1.10;;;23.60;62.30;;;;;;5107375;27;43989;-68
2022/07/17 09:28:04;;;;;;;1.00;1.00;;;23.60;63.00;;;;;;5107517;27;43396;-69
2022/07/17 09:30:32;;;;;;;1.00;1.00;;;23.60;63.20;;;;;;5101268;27;43427;-70
2022/07/17 09:33:00;;;;;;;3.10;1.30;;;23.70;63.30;;;;;;5093758;27;43854;-70
2022/07/17 09:35:30;;;;;;;1.07;1.07;;;23.90;63.30;;;;;;5062120;28;45010;-68
2022/07/17 09:37:58;;;;;;;1.43;1.00;;;24.00;63.00;;;;;;5080940;27;44040;-69
2022/07/17 09:43:14;;;;;;;1.10;1.10;;;24.20;62.40;;;;;;5103526;27;43958;-69
2022/07/17 09:45:42;;;;;;;1.20;1.10;;;24.30;61.80;;;;;;5094120;27;44030;-69
2022/07/17 09:48:10;;;;;;;1.43;1.00;;;24.40;61.60;;;;;;5107638;27;43423;-69
2022/07/17 09:50:40;;;;;;;1.03;1.03;;;24.50;61.30;;;;;;5088865;27;43381;-69
2022/07/17 09:53:08;;;;;;;1.10;1.10;;;24.60;61.00;;;;;;5097086;27;43897;-69
2022/07/17 09:55:36;;;;;;;1.20;1.20;;;24.70;60.30;;;;;;5096810;27;43956;-69
2022/07/17 09:58:15;;;;;;;0.93;0.93;;;24.80;60.10;;;;;;5088984;27;43340;-69
2022/07/17 10:00:43;;;;;;;1.67;1.10;;;24.80;60.20;;;;;;5087770;27;44006;-69
2022/07/17 10:03:11;;;;;;;1.10;1.10;;;24.70;60.40;;;;;;5091446;27;44005;-70
2022/07/17 10:05:40;;;;;;;1.17;1.17;;;24.50;60.80;;;;;;5105833;27;43413;-70
2022/07/17 10:08:13;;;;;;;1.20;1.20;;;24.40;61.00;;;;;;5106671;27;43791;-70
2022/07/17 10:10:40;;;;;;;1.10;1.00;;;24.30;61.10;;;;;;5107029;27;43893;-69
2022/07/17 10:13:08;;;;;;;1.00;1.00;;;24.10;61.40;;;;;;5106291;27;43737;-69
2022/07/17 10:15:36;;;;;;;1.10;1.10;;;24.00;61.70;;;;;;5093952;27;43928;-69
2022/07/17 10:18:06;;;;;;;1.27;1.17;;;23.90;62.00;;;;;;5086779;27;43988;-69
2022/07/17 10:20:34;;;;;;;0.90;0.90;;;23.90;62.10;;;;;;5099340;27;44013;-70
2022/07/17 10:23:12;;;;;;;1.10;1.10;;;23.80;62.40;;;;;;5087695;27;45135;-69
2022/07/17 10:25:40;;;;;;;2.23;1.10;;;23.80;62.40;;;;;;5106479;27;43981;-70
2022/07/17 10:28:08;;;;;;;1.03;1.03;;;23.70;62.40;;;;;;5106145;27;43938;-70
2022/07/17 10:30:36;;;;;;;1.30;1.23;;;23.70;62.60;;;;;;5109544;27;43925;-70
2022/07/17 10:33:06;;;;;;;1.00;1.00;;;23.70;60.60;;;;;;5108890;27;44022;-68
2022/07/17 10:35:43;;;;;;;1.20;1.20;;;23.70;59.70;;;;;;5109523;27;44057;-69
2022/07/17 10:38:13;;;;;;;1.40;1.40;;;23.70;59.00;;;;;;5109836;27;43398;-70
2022/07/17 10:40:41;;;;;;;1.90;1.80;;;23.70;58.80;;;;;;5109406;27;43966;-69
2022/07/17 10:43:09;;;;;;;1.80;1.40;;;23.60;58.30;;;;;;5109163;27;44249;-69
2022/07/17 10:45:39;;;;;;;1.40;1.40;;;23.60;56.00;;;;;;5109281;27;43412;-70
2022/07/17 10:48:08;;;;;;;1.40;1.40;;;23.60;54.10;;;;;;5075340;27;43853;-69
2022/07/17 10:50:38;;;;;;;1.40;1.40;;;23.70;54.20;;;;;;5092652;27;43864;-69
2022/07/17 10:53:08;;;;;;;1.20;1.20;;;23.80;53.50;;;;;;5109171;27;43983;-69
2022/07/17 10:55:39;;;;;;;1.30;1.30;;;23.90;52.40;;;;;;5102773;27;43983;-70
2022/07/17 10:58:21;;;;;;;2.13;1.53;;;24.00;51.90;;;;;;5100877;27;44027;-70
2022/07/17 11:01:00;;;;;;;1.63;1.57;;;24.20;50.20;;;;;;5097646;27;43357;-69
2022/07/17 11:03:29;;;;;;;1.30;1.30;;;24.30;51.50;;;;;;5088146;27;46917;-68
2022/07/17 11:06:07;;;;;;;1.73;1.40;;;24.40;51.80;;;;;;5109131;27;43960;-68
2022/07/17 11:08:37;;;;;;;1.50;1.40;;;24.50;52.40;;;;;;5109382;27;43767;-68
2022/07/17 11:11:06;;;;;;;1.30;1.30;;;24.50;52.80;;;;;;5109543;27;43517;-69
2022/07/17 11:13:34;;;;;;;1.43;1.43;;;24.60;52.60;;;;;;5106905;27;44345;-69
2022/07/17 11:16:03;;;;;;;1.13;1.13;;;24.50;51.80;;;;;;5109100;27;44065;-69
2022/07/17 11:18:31;;;;;;;1.50;1.50;;;24.50;53.10;;;;;;5109363;27;44094;-69
2022/07/17 11:21:00;;;;;;;1.40;1.40;;;24.40;53.70;;;;;;5109480;27;43923;-69
2022/07/17 11:23:29;;;;;;;1.70;1.30;;;24.20;53.80;;;;;;5093319;27;44022;-68
2022/07/17 11:25:59;;;;;;;1.30;1.30;;;24.10;54.90;;;;;;5088971;27;43343;-70
2022/07/17 11:28:36;;;;;;;1.37;1.30;;;24.00;54.70;;;;;;5098425;27;43881;-68
2022/07/17 11:31:15;;;;;;;1.30;1.30;;;23.90;54.80;;;;;;5109217;27;43959;-70
2022/07/17 11:33:48;;;;;;;1.27;1.27;;;23.90;55.00;;;;;;5103260;27;44276;-70
2022/07/17 11:36:27;;;;;;;1.30;1.30;;;23.80;55.10;;;;;;5089062;27;43972;-69
2022/07/17 11:38:56;;;;;;;1.30;1.30;;;23.70;55.30;;;;;;5083670;27;43995;-69
2022/07/17 11:41:32;;;;;;;1.57;1.40;;;23.70;55.40;;;;;;5087734;27;44222;-68
2022/07/17 11:47:55;;;;;;;1.20;1.20;;;23.70;54.70;;;;;;5101484;27;43746;-69
2022/07/17 11:50:23;;;;;;;1.47;1.37;;;23.60;54.70;;;;;;5094931;27;44214;-69
2022/07/17 11:52:51;;;;;;;1.20;1.20;;;23.60;54.40;;;;;;5095801;27;43905;-69
2022/07/17 11:55:19;;;;;;;1.17;1.17;;;23.60;54.90;;;;;;5088488;27;43749;-68
2022/07/17 11:57:48;;;;;;;1.27;1.27;;;23.60;56.20;;;;;;5088543;27;43998;-69
2022/07/17 12:00:18;;;;;;;1.40;1.30;;;23.70;55.70;;;;;;5088966;27;43887;-69
2022/07/17 12:02:46;;;;;;;1.20;1.20;;;23.70;53.80;;;;;;5089013;27;44068;-69
2022/07/17 12:05:25;;;;;;;1.30;1.30;;;23.80;54.40;;;;;;5088213;27;43886;-69
2022/07/17 12:07:54;;;;;;;1.10;1.10;;;23.90;53.10;;;;;;5088780;27;43816;-69
2022/07/17 12:10:23;;;;;;;1.27;1.27;;;24.10;52.70;;;;;;5088751;27;43306;-69
2022/07/17 12:12:57;;;;;;;1.40;1.40;;;24.20;51.90;;;;;;5094787;27;44022;-69
2022/07/17 12:15:35;;;;;;;2.27;1.30;;;24.30;53.00;;;;;;5100312;27;43724;-69
2022/07/17 12:18:04;;;;;;;1.20;1.20;;;24.40;53.50;;;;;;5081821;27;44075;-70
2022/07/17 12:20:43;;;;;;;2.57;1.33;;;24.40;51.10;;;;;;5082075;27;44043;-69
2022/07/17 12:23:27;;;;;;;0.97;0.97;;;24.50;50.00;;;;;;5083887;27;44034;-69
2022/07/17 12:26:04;;;;;;;1.00;1.00;;;24.50;49.80;;;;;;5088305;27;44769;-69
2022/07/17 12:28:32;;;;;;;1.10;1.00;;;24.50;51.10;;;;;;5093150;27;43903;-69
2022/07/17 12:31:00;;;;;;;1.37;1.30;;;24.50;51.90;;;;;;5107871;27;44045;-69
2022/07/17 12:33:29;;;;;;;1.17;1.17;;;24.40;52.20;;;;;;5108376;27;43402;-70
2022/07/17 12:35:58;;;;;;;1.23;1.23;;;24.20;52.20;;;;;;5107832;27;43758;-69
2022/07/17 12:38:26;;;;;;;1.10;1.10;;;24.10;51.90;;;;;;5107989;27;43888;-68
2022/07/17 12:40:54;;;;;;;1.10;1.10;;;24.00;52.10;;;;;;5083382;28;43999;-70
2022/07/17 12:43:22;;;;;;;1.20;1.20;;;23.90;52.60;;;;;;5107030;27;43912;-69
2022/07/17 12:45:50;;;;;;;1.33;1.23;;;23.90;52.40;;;;;;5102250;27;44018;-69
2022/07/17 12:48:19;;;;;;;1.47;1.20;;;23.80;52.30;;;;;;5088051;27;43983;-69
2022/07/17 12:50:47;;;;;;;1.03;1.03;;;23.70;52.70;;;;;;5088034;27;43924;-69
2022/07/17 12:53:16;;;;;;;1.23;1.23;;;23.70;53.00;;;;;;5088253;27;43857;-69
2022/07/17 12:55:44;;;;;;;1.17;1.17;;;23.70;54.10;;;;;;5087884;27;44797;-69
2022/07/17 12:58:12;;;;;;;1.47;1.37;;;23.60;53.50;;;;;;5100364;27;44018;-69
2022/07/17 13:00:40;;;;;;;1.13;1.00;;;23.60;53.70;;;;;;5107585;27;43944;-69
2022/07/17 13:03:08;;;;;;;1.10;1.10;;;23.60;53.90;;;;;;5108053;27;43947;-69
2022/07/17 13:05:37;;;;;;;1.10;1.10;;;23.60;53.90;;;;;;5088880;27;47030;-70